createdAt,value
2019-06-20T00:00:36.156Z,21.54
2019-06-20T00:03:02.913Z,21.50
2019-06-20T00:05:29.285Z,21.46
2019-06-20T00:07:55.545Z,21.42
2019-06-20T00:10:21.893Z,21.40
2019-06-20T00:13:00.046Z,21.39
2019-06-20T00:15:16.383Z,21.36
2019-06-20T00:17:42.517Z,21.36
2019-06-20T00:20:08.997Z,21.34
2019-06-20T00:22:35.090Z,21.35
2019-06-20T00:25:02.964Z,21.33
2019-06-20T00:27:30.480Z,21.33
2019-06-20T00:29:56.660Z,21.31
2019-06-20T00:32:22.816Z,21.29
2019-06-20T00:34:49.077Z,21.31
2019-06-20T00:37:15.355Z,21.30
2019-06-20T00:39:42.688Z,21.28
2019-06-20T00:42:08.929Z,21.28
2019-06-20T00:44:35.132Z,21.28
2019-06-20T00:47:01.257Z,21.29
2019-06-20T00:49:27.577Z,21.29
2019-06-20T00:51:53.674Z,21.27
2019-06-20T00:54:19.811Z,21.29
2019-06-20T00:56:45.967Z,21.31
2019-06-20T00:59:12.075Z,21.32
2019-06-20T01:01:38.257Z,21.32
2019-06-20T01:04:04.514Z,21.33
2019-06-20T01:06:30.787Z,21.38
2019-06-20T01:08:56.929Z,21.40
2019-06-20T01:11:23.078Z,21.36
2019-06-20T01:13:52.607Z,21.33
2019-06-20T01:16:17.369Z,21.31
2019-06-20T01:18:43.574Z,21.31
2019-06-20T01:21:10.363Z,21.35
2019-06-20T01:23:36.545Z,21.36
2019-06-20T01:26:02.769Z,21.36
2019-06-20T01:28:28.953Z,21.41
2019-06-20T01:30:55.111Z,21.39
2019-06-20T01:33:21.308Z,21.36
2019-06-20T01:35:47.426Z,21.38
2019-06-20T01:38:13.644Z,21.36
2019-06-20T01:40:39.751Z,21.38
2019-06-20T01:43:05.991Z,21.41
2019-06-20T01:45:32.421Z,21.41
2019-06-20T01:47:58.542Z,21.40
2019-06-20T01:50:24.961Z,21.41
2019-06-20T01:52:51.061Z,21.34
2019-06-20T01:55:17.321Z,21.31
2019-06-20T01:57:43.486Z,21.29
2019-06-20T02:00:10.638Z,21.26
2019-06-20T02:02:36.730Z,21.30
2019-06-20T02:05:05.288Z,21.32
2019-06-20T02:07:31.511Z,21.28
2019-06-20T02:09:57.749Z,21.27
2019-06-20T02:12:24.136Z,21.27
2019-06-20T02:14:50.416Z,21.27
2019-06-20T02:17:16.832Z,21.26
2019-06-20T02:19:42.936Z,21.27
2019-06-20T02:22:09.131Z,21.32
2019-06-20T02:24:35.392Z,21.36
2019-06-20T02:27:01.642Z,21.39
2019-06-20T02:29:27.963Z,21.39
2019-06-20T02:31:54.178Z,21.40
2019-06-20T02:34:20.477Z,21.41
2019-06-20T02:36:46.723Z,21.40
2019-06-20T02:39:12.885Z,21.42
2019-06-20T02:41:39.359Z,21.44
2019-06-20T02:44:05.679Z,21.45
2019-06-20T02:46:31.988Z,21.49
2019-06-20T02:48:58.386Z,21.53
2019-06-20T02:51:25.300Z,21.57
2019-06-20T02:53:51.686Z,21.58
2019-06-20T02:56:18.045Z,21.58
2019-06-20T02:58:44.199Z,21.57
2019-06-20T03:01:10.693Z,21.57
2019-06-20T03:03:36.894Z,21.58
2019-06-20T03:06:03.394Z,21.58
2019-06-20T03:08:29.798Z,21.55
2019-06-20T03:10:56.014Z,21.53
2019-06-20T03:13:22.303Z,21.52
2019-06-20T03:15:50.110Z,21.52
2019-06-20T03:18:20.967Z,21.51
2019-06-20T03:20:48.679Z,21.51
2019-06-20T03:23:14.998Z,21.52
2019-06-20T03:25:41.375Z,21.53
2019-06-20T03:28:07.778Z,21.55
2019-06-20T03:30:34.003Z,21.57
2019-06-20T03:33:00.464Z,21.59
2019-06-20T03:35:27.043Z,21.56
2019-06-20T03:38:02.141Z,21.53
2019-06-20T03:40:28.395Z,21.54
2019-06-20T03:42:54.599Z,21.56
2019-06-20T03:45:20.719Z,21.60
2019-06-20T03:47:46.923Z,21.58
2019-06-20T03:50:13.238Z,21.54
2019-06-20T03:52:39.582Z,21.44
2019-06-20T03:55:05.895Z,21.32
2019-06-20T03:57:32.316Z,21.22
2019-06-20T03:59:58.458Z,21.15
2019-06-20T04:02:24.789Z,21.07
2019-06-20T04:04:51.034Z,21.03
2019-06-20T04:07:17.265Z,20.99
2019-06-20T04:09:43.462Z,20.94
2019-06-20T04:12:09.583Z,20.88
2019-06-20T04:14:35.812Z,20.83
2019-06-20T04:17:01.967Z,20.84
2019-06-20T04:19:28.443Z,20.78
2019-06-20T04:21:54.655Z,20.72
2019-06-20T04:24:20.859Z,20.69
2019-06-20T04:26:47.082Z,20.63
2019-06-20T04:29:14.519Z,20.56
2019-06-20T04:31:40.623Z,20.52
2019-06-20T04:34:06.842Z,20.49
2019-06-20T04:36:32.951Z,20.48
2019-06-20T04:38:59.126Z,20.46
2019-06-20T04:41:25.311Z,20.44
2019-06-20T04:43:51.456Z,20.43
2019-06-20T04:46:19.465Z,20.41
2019-06-20T04:48:45.665Z,20.43
2019-06-20T04:51:11.770Z,20.40
2019-06-20T04:53:37.968Z,20.48
2019-06-20T04:56:05.763Z,20.51
2019-06-20T04:58:32.167Z,20.53
2019-06-20T05:00:58.300Z,20.57
2019-06-20T05:03:24.462Z,20.64
2019-06-20T05:05:50.677Z,20.64
2019-06-20T05:08:16.776Z,20.67
2019-06-20T05:10:43.102Z,20.69
2019-06-20T05:13:09.195Z,20.74
2019-06-20T05:15:51.105Z,20.84
2019-06-20T05:18:03.574Z,20.89
2019-06-20T05:20:29.878Z,20.93
2019-06-20T05:22:56.026Z,20.97
2019-06-20T05:25:22.253Z,21.01
2019-06-20T05:27:48.504Z,21.03
2019-06-20T05:30:15.163Z,21.03
2019-06-20T05:32:41.306Z,21.01
2019-06-20T05:35:08.175Z,21.03
2019-06-20T05:37:34.288Z,21.03
2019-06-20T05:40:00.610Z,21.00
2019-06-20T05:42:26.864Z,20.94
2019-06-20T05:44:53.024Z,20.86
2019-06-20T05:47:19.228Z,20.75
2019-06-20T05:49:45.460Z,20.63
2019-06-20T05:52:11.709Z,20.43
2019-06-20T05:54:37.962Z,20.28
2019-06-20T05:57:04.740Z,20.18
2019-06-20T05:59:31.081Z,20.15
2019-06-20T06:01:57.235Z,20.05
2019-06-20T06:04:23.439Z,20.02
2019-06-20T06:06:49.554Z,19.99
2019-06-20T06:09:15.808Z,19.96
2019-06-20T06:11:42.204Z,19.99
2019-06-20T06:14:08.493Z,19.97
2019-06-20T06:16:34.668Z,20.05
2019-06-20T06:19:01.109Z,20.03
2019-06-20T06:21:27.409Z,19.99
2019-06-20T06:23:53.677Z,20.10
2019-06-20T06:26:20.201Z,20.16
2019-06-20T06:28:46.545Z,20.20
2019-06-20T06:31:13.105Z,20.18
2019-06-20T06:33:40.599Z,20.21
2019-06-20T06:36:06.814Z,20.29
2019-06-20T06:38:33.113Z,20.35
2019-06-20T06:40:59.724Z,20.35
2019-06-20T06:43:26.136Z,20.31
2019-06-20T06:45:52.385Z,20.35
2019-06-20T06:48:18.653Z,20.40
2019-06-20T06:50:44.878Z,20.41
2019-06-20T06:53:11.367Z,20.41
2019-06-20T06:55:37.744Z,20.47
2019-06-20T06:58:04.707Z,20.60
2019-06-20T07:00:30.807Z,20.76
2019-06-20T07:02:57.101Z,20.85
2019-06-20T07:05:24.558Z,20.81
2019-06-20T07:07:51.304Z,20.89
2019-06-20T07:10:17.735Z,20.97
2019-06-20T07:12:43.950Z,21.08
2019-06-20T07:15:14.158Z,21.10
2019-06-20T07:17:40.351Z,21.15
2019-06-20T07:20:07.366Z,21.18
2019-06-20T07:22:34.552Z,21.19
2019-06-20T07:25:00.916Z,21.17
2019-06-20T07:27:27.432Z,21.13
2019-06-20T07:29:53.748Z,21.13
2019-06-20T07:32:19.997Z,21.23
2019-06-20T07:34:47.834Z,21.33
2019-06-20T07:37:14.033Z,21.38
2019-06-20T07:39:40.187Z,21.47
2019-06-20T07:42:06.980Z,21.53
2019-06-20T07:44:33.132Z,21.56
2019-06-20T07:46:59.349Z,21.60
2019-06-20T07:49:25.513Z,21.64
2019-06-20T07:51:51.672Z,21.71
2019-06-20T07:54:17.873Z,21.70
2019-06-20T07:56:44.047Z,21.61
2019-06-20T07:59:10.717Z,21.52
2019-06-20T08:01:37.006Z,21.49
2019-06-20T08:04:03.414Z,21.45
2019-06-20T08:06:29.606Z,21.37
2019-06-20T08:08:55.778Z,21.30
2019-06-20T08:11:22.383Z,21.31
2019-06-20T08:13:48.586Z,21.42
2019-06-20T08:16:15.056Z,21.48
2019-06-20T08:18:41.384Z,21.59
2019-06-20T08:21:07.787Z,21.70
2019-06-20T08:23:34.751Z,21.83
2019-06-20T08:26:00.879Z,21.94
2019-06-20T08:28:27.184Z,22.04
2019-06-20T08:30:54.145Z,22.21
2019-06-20T08:33:20.652Z,22.34
2019-06-20T08:35:46.960Z,22.44
2019-06-20T08:38:13.380Z,22.52
2019-06-20T08:40:39.731Z,22.63
2019-06-20T08:43:06.397Z,22.70
2019-06-20T08:45:33.869Z,22.79
2019-06-20T08:48:00.210Z,22.92
2019-06-20T08:50:26.751Z,22.95
2019-06-20T08:52:52.906Z,23.07
2019-06-20T08:55:19.276Z,23.17
2019-06-20T08:57:45.688Z,23.29
2019-06-20T09:00:14.290Z,23.44
2019-06-20T09:02:40.575Z,23.54
2019-06-20T09:05:07.674Z,23.63
2019-06-20T09:07:34.288Z,23.79
2019-06-20T09:10:01.846Z,23.96
2019-06-20T09:12:28.338Z,24.14
2019-06-20T09:14:55.152Z,24.33
2019-06-20T09:17:21.442Z,24.46
2019-06-20T09:19:47.537Z,24.55
2019-06-20T09:22:13.760Z,24.66
2019-06-20T09:24:39.835Z,24.72
2019-06-20T09:27:06.046Z,24.81
2019-06-20T09:29:41.388Z,24.90
2019-06-20T09:32:00.467Z,24.92
2019-06-20T09:34:26.630Z,25.04
2019-06-20T09:36:55.123Z,25.10
2019-06-20T09:39:21.532Z,25.15
2019-06-20T09:41:48.251Z,25.30
2019-06-20T09:44:14.363Z,25.41
2019-06-20T09:46:40.564Z,25.47
2019-06-20T09:49:06.798Z,25.66
2019-06-20T09:51:33.100Z,25.68
2019-06-20T09:53:59.210Z,25.64
2019-06-20T09:56:25.423Z,25.60
2019-06-20T09:58:51.530Z,25.47
2019-06-20T10:01:17.740Z,25.42
2019-06-20T10:03:44.393Z,25.42
2019-06-20T10:06:13.973Z,25.26
2019-06-20T10:08:38.790Z,25.31
2019-06-20T10:11:05.988Z,25.40
2019-06-20T10:13:32.929Z,25.37
2019-06-20T10:15:59.358Z,25.21
2019-06-20T10:18:25.572Z,25.06
2019-06-20T10:20:53.025Z,25.08
2019-06-20T10:23:19.351Z,25.16
2019-06-20T10:25:46.672Z,25.32
2019-06-20T10:28:13.563Z,25.46
2019-06-20T10:30:39.735Z,25.52
2019-06-20T10:33:06.094Z,25.57
2019-06-20T10:35:32.556Z,25.63
2019-06-20T10:37:58.731Z,25.64
2019-06-20T10:40:26.318Z,25.87
2019-06-20T10:42:52.948Z,25.95
2019-06-20T10:45:21.798Z,25.98
2019-06-20T10:47:49.034Z,25.96
2019-06-20T10:50:15.873Z,26.09
2019-06-20T10:52:43.396Z,26.20
2019-06-20T10:55:10.297Z,26.19
2019-06-20T10:57:36.762Z,26.29
2019-06-20T11:00:09.818Z,26.25
2019-06-20T11:02:36.081Z,26.14
2019-06-20T11:05:04.872Z,26.14
2019-06-20T11:07:31.144Z,26.21
2019-06-20T11:09:57.321Z,26.24
2019-06-20T11:12:23.533Z,26.38
2019-06-20T11:14:49.706Z,26.52
2019-06-20T11:17:16.171Z,26.88
2019-06-20T11:19:43.775Z,27.95
2019-06-20T11:22:10.059Z,28.15
2019-06-20T11:24:38.876Z,28.51
2019-06-20T11:27:04.403Z,28.03
2019-06-20T11:29:30.599Z,28.36
2019-06-20T11:31:56.828Z,30.07
2019-06-20T11:34:23.253Z,32.07
2019-06-20T11:36:49.500Z,33.21
2019-06-20T11:39:15.744Z,34.25
2019-06-20T11:41:41.983Z,33.14
2019-06-20T11:44:08.164Z,33.93
2019-06-20T11:46:35.420Z,32.86
2019-06-20T11:49:03.724Z,32.98
2019-06-20T11:51:30.065Z,33.45
2019-06-20T11:53:56.385Z,34.41
2019-06-20T11:56:22.696Z,35.44
2019-06-20T11:58:48.975Z,36.28
2019-06-20T12:01:15.369Z,36.74
2019-06-20T12:03:42.530Z,37.30
2019-06-20T12:06:08.755Z,37.98
2019-06-20T12:08:34.960Z,38.29
2019-06-20T12:11:01.162Z,38.37
2019-06-20T12:13:27.375Z,38.98
2019-06-20T12:15:53.484Z,39.16
2019-06-20T12:18:19.690Z,39.16
2019-06-20T12:20:46.814Z,39.71
2019-06-20T12:23:13.076Z,40.00
2019-06-20T12:25:40.886Z,40.00
2019-06-20T12:28:07.482Z,39.80
2019-06-20T12:30:33.581Z,39.70
2019-06-20T12:32:59.782Z,39.72
2019-06-20T12:35:26.015Z,39.81
2019-06-20T12:37:52.314Z,40.05
2019-06-20T12:40:19.035Z,40.41
2019-06-20T12:42:46.643Z,40.92
2019-06-20T12:45:14.091Z,40.86
2019-06-20T12:47:41.785Z,41.27
2019-06-20T12:50:08.704Z,41.52
2019-06-20T12:52:36.003Z,41.54
2019-06-20T12:55:03.948Z,41.56
2019-06-20T12:57:30.153Z,41.89
2019-06-20T12:59:56.617Z,42.29
2019-06-20T13:02:23.180Z,42.41
2019-06-20T13:04:50.603Z,42.00
2019-06-20T13:07:16.965Z,42.08
2019-06-20T13:09:44.013Z,41.68
2019-06-20T13:12:10.259Z,42.17
2019-06-20T13:14:36.362Z,41.74
2019-06-20T13:17:02.784Z,39.44
2019-06-20T13:19:28.911Z,37.75
2019-06-20T13:21:55.128Z,37.14
2019-06-20T13:24:21.288Z,36.47
2019-06-20T13:26:48.881Z,35.03
2019-06-20T13:29:15.631Z,36.63
2019-06-20T13:32:00.521Z,38.74
2019-06-20T13:34:09.899Z,40.34
2019-06-20T13:36:36.171Z,41.35
2019-06-20T13:39:05.627Z,41.83
2019-06-20T13:41:32.287Z,42.07
2019-06-20T13:43:58.530Z,42.02
2019-06-20T13:46:24.684Z,42.54
2019-06-20T13:48:50.900Z,42.68
2019-06-20T13:51:17.561Z,43.16
2019-06-20T13:53:46.267Z,41.84
2019-06-20T13:56:12.995Z,42.27
2019-06-20T13:58:40.693Z,40.15
2019-06-20T14:01:08.366Z,39.05
2019-06-20T14:03:35.138Z,38.24
2019-06-20T14:06:01.886Z,36.78
2019-06-20T14:08:28.316Z,35.23
2019-06-20T14:10:58.804Z,34.81
2019-06-20T14:13:25.321Z,34.44
2019-06-20T14:15:51.546Z,34.68
2019-06-20T14:18:17.813Z,34.93
2019-06-20T14:20:44.841Z,34.08
2019-06-20T14:23:11.176Z,33.13
2019-06-20T14:25:37.436Z,32.44
2019-06-20T14:28:03.814Z,31.87
2019-06-20T14:30:30.189Z,31.57
2019-06-20T14:32:56.754Z,31.98
2019-06-20T14:35:23.271Z,32.17
2019-06-20T14:37:51.563Z,33.22
2019-06-20T14:40:17.785Z,33.45
2019-06-20T14:42:44.552Z,34.18
2019-06-20T14:45:12.569Z,35.04
2019-06-20T14:47:38.864Z,35.68
2019-06-20T14:50:07.325Z,35.85
2019-06-20T14:52:33.542Z,35.74
2019-06-20T14:54:59.661Z,36.42
2019-06-20T14:57:27.056Z,36.04
2019-06-20T14:59:54.405Z,36.69
2019-06-20T15:02:20.667Z,37.09
2019-06-20T15:04:47.847Z,36.72
2019-06-20T15:07:14.286Z,35.74
2019-06-20T15:09:40.460Z,35.38
2019-06-20T15:12:06.608Z,34.69
2019-06-20T15:14:32.773Z,34.59
2019-06-20T15:16:59.098Z,35.25
2019-06-20T15:19:25.594Z,36.14
2019-06-20T15:21:52.143Z,36.85
2019-06-20T15:24:18.353Z,36.76
2019-06-20T15:26:45.859Z,36.55
2019-06-20T15:29:12.831Z,36.43
2019-06-20T15:31:39.052Z,35.94
2019-06-20T15:34:05.791Z,35.41
2019-06-20T15:36:32.175Z,35.31
2019-06-20T15:38:58.391Z,35.72
2019-06-20T15:41:28.719Z,35.82
2019-06-20T15:44:02.909Z,35.98
2019-06-20T15:46:30.620Z,36.20
2019-06-20T15:48:59.838Z,36.18
2019-06-20T15:51:25.170Z,35.96
2019-06-20T15:53:51.852Z,36.06
2019-06-20T15:56:18.127Z,36.10
2019-06-20T15:58:44.418Z,36.12
2019-06-20T16:01:18.900Z,36.09
2019-06-20T16:03:50.583Z,34.98
2019-06-20T16:06:19.786Z,33.77
2019-06-20T16:08:46.465Z,32.93
2019-06-20T16:11:13.149Z,32.18
2019-06-20T16:13:39.345Z,31.62
2019-06-20T16:16:05.802Z,31.22
2019-06-20T16:18:32.095Z,30.93
2019-06-20T16:20:59.566Z,30.81
2019-06-20T16:23:26.041Z,30.61
2019-06-20T16:25:54.084Z,30.44
2019-06-20T16:28:20.520Z,30.27
2019-06-20T16:30:47.975Z,30.10
2019-06-20T16:33:25.138Z,29.91
2019-06-20T16:35:51.280Z,29.68
2019-06-20T16:38:23.119Z,29.70
2019-06-20T16:40:49.922Z,29.81
2019-06-20T16:43:16.351Z,29.81
2019-06-20T16:45:43.013Z,29.75
2019-06-20T16:48:09.475Z,29.66
2019-06-20T16:50:38.859Z,29.46
2019-06-20T16:53:05.347Z,29.37
2019-06-20T16:55:35.930Z,29.13
2019-06-20T16:58:04.559Z,29.01
2019-06-20T17:00:31.292Z,28.88
2019-06-20T17:02:57.653Z,28.71
2019-06-20T17:05:24.281Z,28.58
2019-06-20T17:07:52.697Z,28.49
2019-06-20T17:10:30.267Z,28.42
2019-06-20T17:12:58.111Z,28.35
2019-06-20T17:15:28.740Z,28.20
2019-06-20T17:18:00.559Z,28.01
2019-06-20T17:20:29.636Z,27.92
2019-06-20T17:22:56.949Z,27.81
2019-06-20T17:25:23.294Z,27.67
2019-06-20T17:27:49.602Z,27.50
2019-06-20T17:30:18.004Z,27.42
2019-06-20T17:32:44.315Z,27.29
2019-06-20T17:35:10.776Z,27.19
2019-06-20T17:37:37.179Z,27.15
2019-06-20T17:40:07.980Z,27.04
2019-06-20T17:42:34.344Z,26.95
2019-06-20T17:45:00.497Z,26.90
2019-06-20T17:47:27.553Z,26.84
2019-06-20T17:49:53.860Z,26.75
2019-06-20T17:52:20.222Z,26.69
2019-06-20T17:54:46.505Z,26.58
2019-06-20T17:57:12.722Z,26.45
2019-06-20T17:59:41.017Z,26.33
2019-06-20T18:02:07.942Z,26.19
2019-06-20T18:04:34.177Z,26.04
2019-06-20T18:07:00.432Z,25.85
2019-06-20T18:09:29.372Z,25.69
2019-06-20T18:11:55.933Z,25.53
2019-06-20T18:14:22.234Z,25.45
2019-06-20T18:16:48.387Z,25.41
2019-06-20T18:19:14.740Z,25.41
2019-06-20T18:21:41.123Z,25.33
2019-06-20T18:24:07.329Z,25.24
2019-06-20T18:26:33.781Z,25.05
2019-06-20T18:28:59.930Z,24.89
2019-06-20T18:31:26.092Z,24.73
2019-06-20T18:33:52.331Z,24.64
2019-06-20T18:36:18.484Z,24.51
2019-06-20T18:38:46.265Z,24.37
2019-06-20T18:41:12.531Z,24.25
2019-06-20T18:43:38.672Z,24.16
2019-06-20T18:46:05.316Z,24.04
2019-06-20T18:48:31.852Z,24.01
2019-06-20T18:50:58.126Z,24.00
2019-06-20T18:53:24.401Z,23.96
2019-06-20T18:55:50.553Z,23.91
2019-06-20T18:58:16.784Z,23.85
2019-06-20T19:00:42.994Z,23.84
2019-06-20T19:03:09.198Z,23.79
2019-06-20T19:05:36.367Z,23.74
2019-06-20T19:08:03.316Z,23.72
2019-06-20T19:10:33.343Z,23.69
2019-06-20T19:12:57.675Z,23.65
2019-06-20T19:15:24.306Z,23.62
2019-06-20T19:17:52.414Z,23.58
2019-06-20T19:20:19.379Z,23.52
2019-06-20T19:22:45.620Z,23.45
2019-06-20T19:25:12.230Z,23.45
2019-06-20T19:27:46.280Z,23.35
2019-06-20T19:30:08.855Z,23.29
2019-06-20T19:32:35.289Z,23.27
2019-06-20T19:35:03.100Z,23.26
2019-06-20T19:37:29.322Z,23.22
2019-06-20T19:39:55.694Z,23.21
2019-06-20T19:42:24.105Z,23.18
2019-06-20T19:44:50.494Z,23.17
2019-06-20T19:47:17.383Z,23.12
2019-06-20T19:49:43.702Z,23.10
2019-06-20T19:52:11.843Z,23.09
2019-06-20T19:54:38.326Z,23.07
2019-06-20T19:57:04.733Z,23.03
2019-06-20T19:59:30.931Z,22.97
2019-06-20T20:01:57.194Z,22.90
2019-06-20T20:04:23.471Z,22.84
2019-06-20T20:06:49.853Z,22.80
2019-06-20T20:09:16.191Z,22.79
2019-06-20T20:11:43.454Z,22.72
2019-06-20T20:14:09.833Z,22.64
2019-06-20T20:16:35.954Z,22.59
2019-06-20T20:19:02.651Z,22.55
2019-06-20T20:21:29.241Z,22.50
2019-06-20T20:23:55.928Z,22.44
2019-06-20T20:26:23.159Z,22.36
2019-06-20T20:28:49.457Z,22.28
2019-06-20T20:31:20.190Z,22.22
2019-06-20T20:33:46.505Z,22.15
2019-06-20T20:36:24.578Z,22.09
2019-06-20T20:38:40.869Z,22.05
2019-06-20T20:41:07.133Z,22.01
2019-06-20T20:43:33.613Z,21.98
2019-06-20T20:46:00.932Z,21.93
2019-06-20T20:48:27.250Z,21.85
2019-06-20T20:50:53.505Z,21.76
2019-06-20T20:53:19.782Z,21.68
2019-06-20T20:55:46.031Z,21.58
2019-06-20T20:58:12.235Z,21.54
2019-06-20T21:00:45.086Z,21.49
2019-06-20T21:03:11.251Z,21.44
2019-06-20T21:05:50.620Z,21.38
2019-06-20T21:08:05.675Z,21.29
2019-06-20T21:10:31.843Z,21.20
2019-06-20T21:12:58.017Z,21.11
2019-06-20T21:15:24.257Z,21.05
2019-06-20T21:17:50.416Z,20.96
2019-06-20T21:20:17.827Z,20.88
2019-06-20T21:22:43.939Z,20.81
2019-06-20T21:25:10.443Z,20.75
2019-06-20T21:27:36.566Z,20.67
2019-06-20T21:30:06.323Z,20.61
2019-06-20T21:32:32.641Z,20.52
2019-06-20T21:34:58.929Z,20.48
2019-06-20T21:37:25.242Z,20.41
2019-06-20T21:39:51.445Z,20.35
2019-06-20T21:42:17.750Z,20.36
2019-06-20T21:44:44.038Z,20.32
2019-06-20T21:47:11.309Z,20.30
2019-06-20T21:49:37.461Z,20.29
2019-06-20T21:52:03.845Z,20.28
2019-06-20T21:54:30.227Z,20.24
2019-06-20T21:56:56.388Z,20.23
2019-06-20T21:59:22.536Z,20.20
2019-06-20T22:01:48.808Z,20.16
2019-06-20T22:04:15.148Z,20.14
2019-06-20T22:06:41.426Z,20.11
2019-06-20T22:09:07.666Z,20.08
2019-06-20T22:11:34.820Z,20.04
2019-06-20T22:14:00.996Z,20.02
2019-06-20T22:16:27.137Z,19.97
2019-06-20T22:18:53.273Z,19.93
2019-06-20T22:21:19.431Z,19.87
2019-06-20T22:23:46.669Z,19.84
2019-06-20T22:26:12.832Z,19.81
2019-06-20T22:28:39.143Z,19.77
2019-06-20T22:31:05.445Z,19.71
2019-06-20T22:33:31.883Z,19.64
2019-06-20T22:35:57.970Z,19.60
2019-06-20T22:38:24.197Z,19.54
2019-06-20T22:40:50.402Z,19.49
2019-06-20T22:43:16.741Z,19.45
2019-06-20T22:45:43.008Z,19.39
2019-06-20T22:48:09.398Z,19.36
2019-06-20T22:50:35.651Z,19.34
2019-06-20T22:53:02.003Z,19.33
2019-06-20T22:55:28.150Z,19.28
2019-06-20T22:57:54.308Z,19.29
2019-06-20T23:00:21.036Z,19.27
2019-06-20T23:02:47.359Z,19.26
2019-06-20T23:05:13.675Z,19.23
2019-06-20T23:07:40.029Z,19.21
2019-06-20T23:10:10.851Z,19.19
2019-06-20T23:12:35.682Z,19.15
2019-06-20T23:15:03.530Z,19.11
2019-06-20T23:17:29.683Z,19.09
2019-06-20T23:19:55.828Z,19.05
2019-06-20T23:22:21.984Z,19.02
2019-06-20T23:24:48.252Z,18.98
2019-06-20T23:27:14.411Z,18.95
2019-06-20T23:29:40.569Z,18.90
2019-06-20T23:32:06.719Z,18.87
2019-06-20T23:34:32.873Z,18.82
2019-06-20T23:37:12.194Z,18.80
2019-06-20T23:39:28.451Z,18.78
2019-06-20T23:41:54.869Z,18.74
2019-06-20T23:44:20.974Z,18.71
2019-06-20T23:46:47.209Z,18.67
2019-06-20T23:49:13.343Z,18.65
2019-06-20T23:51:44.472Z,18.65
2019-06-20T23:54:10.586Z,18.69
2019-06-20T23:56:36.833Z,18.69
2019-06-20T23:59:03.312Z,18.65
